createdAt,value
2023-05-19T00:04:10.234Z,2.25
2023-05-19T00:06:37.144Z,2.05
2023-05-19T00:09:09.498Z,1.70
2023-05-19T00:11:38.166Z,2.15
2023-05-19T00:14:07.272Z,2.17
2023-05-19T00:16:34.616Z,2.13
2023-05-19T00:19:04.127Z,1.98
2023-05-19T00:24:25.590Z,2.30
2023-05-19T00:26:52.194Z,2.23
2023-05-19T00:29:19.206Z,1.90
2023-05-19T00:31:46.624Z,1.88
2023-05-19T00:34:13.212Z,1.98
2023-05-19T00:36:39.809Z,1.90
2023-05-19T00:39:06.461Z,1.80
2023-05-19T00:44:27.662Z,2.40
2023-05-19T00:46:54.389Z,1.80
2023-05-19T00:49:21.741Z,2.65
2023-05-19T00:51:49.097Z,2.20
2023-05-19T00:54:16.185Z,1.90
2023-05-19T00:56:42.813Z,1.70
2023-05-19T00:59:09.435Z,2.28
2023-05-19T01:01:36.716Z,1.48
2023-05-19T01:04:04.674Z,2.20
2023-05-19T01:06:31.326Z,2.15
2023-05-19T01:08:58.222Z,2.08
2023-05-19T01:11:24.818Z,2.42
2023-05-19T01:13:51.669Z,1.63
2023-05-19T01:16:40.325Z,2.40
2023-05-19T01:19:31.016Z,2.30
2023-05-19T01:22:13.172Z,1.98
2023-05-19T01:25:01.834Z,2.03
2023-05-19T01:28:01.275Z,1.95
2023-05-19T01:33:44.512Z,2.22
2023-05-19T01:36:13.657Z,1.70
2023-05-19T01:38:40.716Z,2.35
2023-05-19T01:44:02.600Z,2.07
2023-05-19T01:46:29.631Z,1.98
2023-05-19T01:48:56.835Z,3.05
2023-05-19T01:51:23.545Z,2.67
2023-05-19T01:53:50.329Z,1.83
2023-05-19T01:56:24.560Z,2.57
2023-05-19T01:59:01.914Z,2.00
2023-05-19T02:01:38.705Z,2.35
2023-05-19T02:04:14.850Z,2.47
2023-05-19T02:07:09.530Z,2.92
2023-05-19T02:09:54.272Z,2.73
2023-05-19T02:12:27.117Z,2.30
2023-05-19T02:15:06.462Z,2.90
2023-05-19T02:17:36.634Z,1.88
2023-05-19T02:20:05.528Z,2.33
2023-05-19T02:22:32.466Z,2.47
2023-05-19T02:24:59.139Z,1.80
2023-05-19T02:27:26.415Z,2.63
2023-05-19T02:29:53.613Z,2.30
2023-05-19T02:32:21.121Z,2.83
2023-05-19T02:34:48.038Z,2.10
2023-05-19T02:37:15.804Z,2.22
2023-05-19T02:39:42.987Z,2.55
2023-05-19T02:42:10.051Z,2.50
2023-05-19T02:44:36.709Z,2.45
2023-05-19T02:47:03.263Z,2.70
2023-05-19T02:49:35.941Z,2.90
2023-05-19T02:52:05.007Z,2.50
2023-05-19T02:54:32.441Z,3.47
2023-05-19T02:56:59.147Z,3.17
2023-05-19T02:59:25.952Z,2.37
2023-05-19T03:01:56.462Z,2.63
2023-05-19T03:04:23.209Z,2.47
2023-05-19T03:06:50.239Z,3.03
2023-05-19T03:09:17.007Z,2.63
2023-05-19T03:11:43.502Z,3.17
2023-05-19T03:14:10.268Z,2.85
2023-05-19T03:16:37.076Z,2.58
2023-05-19T03:19:03.898Z,1.80
2023-05-19T03:21:32.273Z,2.53
2023-05-19T03:23:58.998Z,2.30
2023-05-19T03:26:25.573Z,2.95
2023-05-19T03:28:52.266Z,2.60
2023-05-19T03:31:19.125Z,2.35
2023-05-19T03:33:45.776Z,2.55
2023-05-19T03:36:12.770Z,2.60
2023-05-19T03:38:39.556Z,3.35
2023-05-19T03:41:06.160Z,3.05
2023-05-19T03:43:32.929Z,3.08
2023-05-19T03:45:59.582Z,3.08
2023-05-19T03:48:26.824Z,3.40
2023-05-19T03:50:54.534Z,3.35
2023-05-19T03:53:21.508Z,2.10
2023-05-19T03:55:49.782Z,3.65
2023-05-19T03:58:16.670Z,2.78
2023-05-19T04:00:43.663Z,3.50
2023-05-19T04:03:10.437Z,2.60
2023-05-19T04:05:37.353Z,3.08
2023-05-19T04:08:04.030Z,2.75
2023-05-19T04:10:31.084Z,2.67
2023-05-19T04:12:57.845Z,2.53
2023-05-19T04:15:24.633Z,2.47
2023-05-19T04:17:51.250Z,3.35
2023-05-19T04:20:18.000Z,3.33
2023-05-19T04:22:44.620Z,3.47
2023-05-19T04:25:11.840Z,2.77
2023-05-19T04:27:39.312Z,3.22
2023-05-19T04:30:06.566Z,3.40
2023-05-19T04:32:33.411Z,3.50
2023-05-19T04:35:00.065Z,3.63
2023-05-19T04:37:26.728Z,2.80
2023-05-19T04:39:54.314Z,3.08
2023-05-19T04:42:21.207Z,3.10
2023-05-19T04:44:49.301Z,3.97
2023-05-19T04:47:16.232Z,3.42
2023-05-19T04:49:43.137Z,2.63
2023-05-19T04:55:05.630Z,3.58
2023-05-19T04:57:32.389Z,3.53
2023-05-19T05:00:00.449Z,3.70
2023-05-19T05:02:30.179Z,3.37
2023-05-19T05:04:56.852Z,2.90
2023-05-19T05:07:23.770Z,3.58
2023-05-19T05:09:50.572Z,3.40
2023-05-19T05:12:18.676Z,3.83
2023-05-19T05:14:45.742Z,3.37
2023-05-19T05:17:13.267Z,4.07
2023-05-19T05:19:40.483Z,3.75
2023-05-19T05:22:07.554Z,4.25
2023-05-19T05:24:34.509Z,3.70
2023-05-19T05:27:01.529Z,4.17
2023-05-19T05:29:28.220Z,4.47
2023-05-19T05:31:54.796Z,3.90
2023-05-19T05:34:21.494Z,4.03
2023-05-19T05:36:48.393Z,5.00
2023-05-19T05:39:15.022Z,3.70
2023-05-19T05:41:41.696Z,4.10
2023-05-19T05:44:08.379Z,4.28
2023-05-19T05:46:36.242Z,2.97
2023-05-19T05:49:03.180Z,4.07
2023-05-19T05:51:30.186Z,4.13
2023-05-19T05:53:57.861Z,4.20
2023-05-19T05:56:25.025Z,4.03
2023-05-19T05:58:52.105Z,3.30
2023-05-19T06:01:18.698Z,3.53
2023-05-19T06:03:45.399Z,3.70
2023-05-19T06:06:12.269Z,3.75
2023-05-19T06:08:38.962Z,4.00
2023-05-19T06:14:03.809Z,4.05
2023-05-19T06:16:30.430Z,3.80
2023-05-19T06:18:58.858Z,4.03
2023-05-19T06:21:25.785Z,3.33
2023-05-19T06:23:52.359Z,3.97
2023-05-19T06:26:18.920Z,4.78
2023-05-19T06:28:45.498Z,3.40
2023-05-19T06:31:12.099Z,4.80
2023-05-19T06:33:38.750Z,3.72
2023-05-19T06:36:05.591Z,3.35
2023-05-19T06:38:32.622Z,3.47
2023-05-19T06:40:59.252Z,2.70
2023-05-19T06:43:26.035Z,3.47
2023-05-19T06:45:52.876Z,3.45
2023-05-19T06:48:19.388Z,3.25
2023-05-19T06:50:49.257Z,3.70
2023-05-19T06:56:11.939Z,3.47
2023-05-19T06:58:39.498Z,3.15
2023-05-19T07:04:00.489Z,3.08
2023-05-19T07:06:27.696Z,3.17
2023-05-19T07:08:54.454Z,3.20
2023-05-19T07:11:21.778Z,3.22
2023-05-19T07:13:48.388Z,3.03
2023-05-19T07:16:15.137Z,4.10
2023-05-19T07:18:41.831Z,2.85
2023-05-19T07:24:02.569Z,2.35
2023-05-19T07:26:29.261Z,2.97
2023-05-19T07:28:57.020Z,2.55
2023-05-19T07:34:17.753Z,2.33
2023-05-19T07:36:44.577Z,2.60
2023-05-19T07:39:11.300Z,2.53
2023-05-19T07:41:38.096Z,2.78
2023-05-19T07:44:07.830Z,2.30
2023-05-19T07:46:35.650Z,2.20
2023-05-19T07:49:02.560Z,2.45
2023-05-19T07:51:29.288Z,2.00
2023-05-19T07:54:13.233Z,1.63
2023-05-19T07:56:40.090Z,2.13
2023-05-19T07:59:08.170Z,2.15
2023-05-19T08:01:34.861Z,2.58
2023-05-19T08:04:01.605Z,1.70
2023-05-19T08:06:30.096Z,1.70
2023-05-19T08:08:56.700Z,2.08
2023-05-19T08:11:23.592Z,1.95
2023-05-19T08:13:50.480Z,2.40
2023-05-19T08:16:17.146Z,1.48
2023-05-19T08:18:44.272Z,1.52
2023-05-19T08:21:10.963Z,1.73
2023-05-19T08:23:38.645Z,1.45
2023-05-19T08:26:13.002Z,1.30
2023-05-19T08:28:39.686Z,4.32
2023-05-19T08:31:06.375Z,1.60
2023-05-19T08:33:32.973Z,1.80
2023-05-19T08:36:00.074Z,1.45
2023-05-19T08:38:28.602Z,1.20
2023-05-19T08:40:55.594Z,1.40
2023-05-19T08:43:22.567Z,1.00
2023-05-19T08:45:50.098Z,1.10
2023-05-19T08:48:18.785Z,1.13
2023-05-19T08:50:57.198Z,0.80
2023-05-19T08:53:33.781Z,0.90
2023-05-19T08:56:20.041Z,1.15
2023-05-19T08:58:48.976Z,1.60
2023-05-19T09:01:18.845Z,1.15
2023-05-19T09:03:46.998Z,1.05
2023-05-19T09:06:14.442Z,1.05
2023-05-19T09:08:42.355Z,1.20
2023-05-19T09:11:10.273Z,2.00
2023-05-19T09:13:37.266Z,1.63
2023-05-19T09:18:58.830Z,1.70
2023-05-19T09:21:31.692Z,1.45
2023-05-19T09:23:59.528Z,1.67
2023-05-19T09:26:37.405Z,1.35
2023-05-19T09:29:12.059Z,1.40
2023-05-19T09:31:39.081Z,1.70
2023-05-19T09:34:12.873Z,1.13
2023-05-19T09:36:41.696Z,1.45
2023-05-19T09:39:15.884Z,1.83
2023-05-19T09:41:43.059Z,1.38
2023-05-19T09:44:15.232Z,1.60
2023-05-19T09:46:49.890Z,1.70
2023-05-19T09:49:27.006Z,2.05
2023-05-19T09:51:57.369Z,1.33
2023-05-19T09:54:24.910Z,1.50
2023-05-19T09:56:57.947Z,1.55
2023-05-19T09:59:26.245Z,1.48
2023-05-19T10:04:52.149Z,1.70
2023-05-19T10:07:21.310Z,1.50
2023-05-19T10:09:50.162Z,1.73
2023-05-19T10:12:18.133Z,1.90
2023-05-19T10:14:45.349Z,1.60
2023-05-19T10:17:12.950Z,1.33
2023-05-19T10:19:41.241Z,1.52
2023-05-19T10:22:07.862Z,1.60
2023-05-19T10:24:34.518Z,3.00
2023-05-19T10:27:05.631Z,2.53
2023-05-19T10:29:38.043Z,1.50
2023-05-19T10:32:14.184Z,1.70
2023-05-19T10:35:24.412Z,1.48
2023-05-19T10:38:17.842Z,1.75
2023-05-19T10:40:59.195Z,1.50
2023-05-19T10:43:38.503Z,1.30
2023-05-19T10:46:06.661Z,1.42
2023-05-19T10:48:36.803Z,1.77
2023-05-19T10:51:04.680Z,1.75
2023-05-19T10:53:32.530Z,1.65
2023-05-19T10:56:04.791Z,1.60
2023-05-19T10:58:40.261Z,1.58
2023-05-19T11:01:11.788Z,1.33
2023-05-19T11:03:57.885Z,1.88
2023-05-19T11:06:28.702Z,1.73
2023-05-19T11:09:15.582Z,2.00
2023-05-19T11:11:49.369Z,1.88
2023-05-19T11:14:21.681Z,1.20
2023-05-19T11:16:52.406Z,1.17
2023-05-19T11:19:27.483Z,1.77
2023-05-19T11:21:56.566Z,1.60
2023-05-19T11:24:46.565Z,1.10
2023-05-19T11:27:32.831Z,1.05
2023-05-19T11:30:12.026Z,1.38
2023-05-19T11:32:39.659Z,2.35
2023-05-19T11:35:08.055Z,2.43
2023-05-19T11:37:35.783Z,1.45
2023-05-19T11:40:08.878Z,1.40
2023-05-19T11:42:37.122Z,2.20
2023-05-19T11:45:04.958Z,1.50
2023-05-19T11:47:46.468Z,1.33
2023-05-19T11:50:22.127Z,1.38
2023-05-19T11:52:48.914Z,1.13
2023-05-19T11:55:16.740Z,1.00
2023-05-19T11:58:02.962Z,1.48
2023-05-19T12:00:37.751Z,2.43
2023-05-19T12:03:04.774Z,1.10
2023-05-19T12:05:34.487Z,1.20
2023-05-19T12:08:03.213Z,1.63
2023-05-19T12:10:34.335Z,1.27
2023-05-19T12:13:02.125Z,1.00
2023-05-19T12:15:28.746Z,1.30
2023-05-19T12:18:02.354Z,1.33
2023-05-19T12:20:35.853Z,1.30
2023-05-19T12:23:04.108Z,1.50
2023-05-19T12:25:31.937Z,1.50
2023-05-19T12:28:00.343Z,1.42
2023-05-19T12:30:29.182Z,1.42
2023-05-19T12:32:57.840Z,1.80
2023-05-19T12:35:29.329Z,1.60
2023-05-19T12:37:56.370Z,1.47
2023-05-19T12:40:23.237Z,1.40
2023-05-19T12:42:53.425Z,2.15
2023-05-19T12:45:23.454Z,3.03
2023-05-19T12:47:51.216Z,2.97
2023-05-19T12:50:18.368Z,2.70
2023-05-19T12:52:48.087Z,2.80
2023-05-19T12:55:16.644Z,2.10
2023-05-19T12:57:50.748Z,2.00
2023-05-19T13:00:22.972Z,1.67
2023-05-19T13:03:04.996Z,1.53
2023-05-19T13:05:37.228Z,1.63
2023-05-19T13:08:09.606Z,1.38
2023-05-19T13:10:38.318Z,1.77
2023-05-19T13:13:06.101Z,1.73
2023-05-19T13:15:35.754Z,2.07
2023-05-19T13:18:06.394Z,1.52
2023-05-19T13:20:33.735Z,1.50
2023-05-19T13:23:00.863Z,1.23
2023-05-19T13:25:28.182Z,1.52
2023-05-19T13:27:55.305Z,1.90
2023-05-19T13:30:22.830Z,1.27
2023-05-19T13:32:49.522Z,2.20
2023-05-19T13:35:16.175Z,1.52
2023-05-19T13:37:42.912Z,1.42
2023-05-19T13:40:10.962Z,1.57
2023-05-19T13:42:38.394Z,1.60
2023-05-19T13:45:05.856Z,2.00
2023-05-19T13:47:32.658Z,1.50
2023-05-19T13:49:59.403Z,1.88
2023-05-19T13:52:28.346Z,1.53
2023-05-19T13:54:57.693Z,1.55
2023-05-19T13:57:26.772Z,1.98
2023-05-19T14:00:06.066Z,1.60
2023-05-19T14:02:33.913Z,1.40
2023-05-19T14:05:03.074Z,1.30
2023-05-19T14:07:30.768Z,1.77
2023-05-19T14:09:58.087Z,1.73
2023-05-19T14:12:35.416Z,1.50
2023-05-19T14:15:07.278Z,1.98
2023-05-19T14:17:35.083Z,2.00
2023-05-19T14:20:01.744Z,1.05
2023-05-19T14:22:28.398Z,1.95
2023-05-19T14:24:55.286Z,1.55
2023-05-19T14:27:21.851Z,1.42
2023-05-19T14:29:49.105Z,1.50
2023-05-19T14:32:16.692Z,1.40
2023-05-19T14:34:43.417Z,1.45
2023-05-19T14:37:10.023Z,1.50
2023-05-19T14:39:36.766Z,1.48
2023-05-19T14:42:03.496Z,1.30
2023-05-19T14:44:32.974Z,1.50
2023-05-19T14:47:01.271Z,1.45
2023-05-19T14:49:28.161Z,1.13
2023-05-19T14:51:54.825Z,1.38
2023-05-19T14:54:21.528Z,1.43
2023-05-19T14:56:48.418Z,1.38
2023-05-19T14:59:15.015Z,1.55
2023-05-19T15:01:41.814Z,1.05
2023-05-19T15:04:08.493Z,1.58
2023-05-19T15:06:35.411Z,1.73
2023-05-19T15:09:02.121Z,1.38
2023-05-19T15:11:28.710Z,1.08
2023-05-19T15:13:55.569Z,1.55
2023-05-19T15:16:22.178Z,1.33
2023-05-19T15:18:48.826Z,1.87
2023-05-19T15:21:15.646Z,1.40
2023-05-19T15:23:42.295Z,1.38
2023-05-19T15:26:08.997Z,1.58
2023-05-19T15:28:35.734Z,1.38
2023-05-19T15:31:02.385Z,1.63
2023-05-19T15:33:29.107Z,1.25
2023-05-19T15:35:56.892Z,1.50
2023-05-19T15:38:23.376Z,1.67
2023-05-19T15:40:49.902Z,1.30
2023-05-19T15:43:17.455Z,1.37
2023-05-19T15:45:44.135Z,1.40
2023-05-19T15:48:11.535Z,1.00
2023-05-19T15:50:38.430Z,1.40
2023-05-19T15:53:07.782Z,1.00
2023-05-19T15:55:34.501Z,1.50
2023-05-19T15:58:01.187Z,1.45
2023-05-19T16:00:27.773Z,1.30
2023-05-19T16:02:54.722Z,1.48
2023-05-19T16:05:21.522Z,1.60
2023-05-19T16:07:48.201Z,1.43
2023-05-19T16:10:15.121Z,1.60
2023-05-19T16:12:41.780Z,1.65
2023-05-19T16:15:08.886Z,1.65
2023-05-19T16:17:36.227Z,1.27
2023-05-19T16:20:03.166Z,1.37
2023-05-19T16:22:30.569Z,1.65
2023-05-19T16:24:57.213Z,1.80
2023-05-19T16:27:23.843Z,1.50
2023-05-19T16:29:50.838Z,1.90
2023-05-19T16:32:18.898Z,1.60
2023-05-19T16:34:45.598Z,1.38
2023-05-19T16:37:12.574Z,1.52
2023-05-19T16:39:40.285Z,1.30
2023-05-19T16:42:07.120Z,1.58
2023-05-19T16:44:36.035Z,1.53
2023-05-19T16:47:02.750Z,1.70
2023-05-19T16:49:29.716Z,1.92
2023-05-19T16:51:56.810Z,1.67
2023-05-19T16:54:23.581Z,1.60
2023-05-19T16:56:51.376Z,1.53
2023-05-19T16:59:19.423Z,1.55
2023-05-19T17:01:46.263Z,1.48
2023-05-19T17:04:13.392Z,1.60
2023-05-19T17:06:40.178Z,1.30
2023-05-19T17:09:06.809Z,1.40
2023-05-19T17:11:33.790Z,1.52
2023-05-19T17:14:02.100Z,1.77
2023-05-19T17:16:28.740Z,1.67
2023-05-19T17:18:55.582Z,1.67
2023-05-19T17:21:22.166Z,1.53
2023-05-19T17:23:49.447Z,1.60
2023-05-19T17:26:16.451Z,1.65
2023-05-19T17:28:43.150Z,1.95
2023-05-19T17:31:12.829Z,1.60
2023-05-19T17:33:39.685Z,1.90
2023-05-19T17:36:07.491Z,0.93
2023-05-19T17:38:34.520Z,1.45
2023-05-19T17:41:09.776Z,1.10
2023-05-19T17:43:37.602Z,1.40
2023-05-19T17:46:04.885Z,1.27
2023-05-19T17:48:32.149Z,1.38
2023-05-19T17:50:59.151Z,1.48
2023-05-19T17:53:26.476Z,1.70
2023-05-19T17:55:58.803Z,1.92
2023-05-19T17:58:26.109Z,1.83
2023-05-19T18:00:53.862Z,1.50
2023-05-19T18:03:23.977Z,1.40
2023-05-19T18:05:51.296Z,2.05
2023-05-19T18:08:18.431Z,1.65
2023-05-19T18:10:46.126Z,1.60
2023-05-19T18:13:16.048Z,1.50
2023-05-19T18:15:42.857Z,1.70
2023-05-19T18:18:10.968Z,1.40
2023-05-19T18:20:44.296Z,1.65
2023-05-19T18:23:11.111Z,1.40
2023-05-19T18:25:38.163Z,1.92
2023-05-19T18:28:04.972Z,1.83
2023-05-19T18:30:31.875Z,1.80
2023-05-19T18:33:02.178Z,1.83
2023-05-19T18:35:29.124Z,1.80
2023-05-19T18:37:57.091Z,1.92
2023-05-19T18:40:24.082Z,1.75
2023-05-19T18:42:50.997Z,1.45
2023-05-19T18:45:17.598Z,1.30
2023-05-19T18:47:44.309Z,1.60
2023-05-19T18:50:11.014Z,1.40
2023-05-19T18:52:37.623Z,1.60
2023-05-19T18:55:04.949Z,1.90
2023-05-19T18:57:31.789Z,1.25
2023-05-19T18:59:58.475Z,1.67
2023-05-19T19:02:25.089Z,1.38
2023-05-19T19:04:51.733Z,1.73
2023-05-19T19:07:18.710Z,2.05
2023-05-19T19:09:45.568Z,1.40
2023-05-19T19:12:12.230Z,1.17
2023-05-19T19:14:39.241Z,1.30
2023-05-19T19:17:06.193Z,1.40
2023-05-19T19:19:33.160Z,1.40
2023-05-19T19:22:00.040Z,1.23
2023-05-19T19:24:28.782Z,1.60
2023-05-19T19:26:55.424Z,1.40
2023-05-19T19:29:22.252Z,1.08
2023-05-19T19:31:49.089Z,1.65
2023-05-19T19:34:15.980Z,1.95
2023-05-19T19:36:42.607Z,1.60
2023-05-19T19:39:09.488Z,1.35
2023-05-19T19:41:36.809Z,1.27
2023-05-19T19:44:03.755Z,1.85
2023-05-19T19:46:30.595Z,1.73
2023-05-19T19:49:00.389Z,2.22
2023-05-19T19:51:28.055Z,1.80
2023-05-19T19:53:55.049Z,1.55
2023-05-19T19:56:24.542Z,1.70
2023-05-19T19:58:51.625Z,1.73
2023-05-19T20:01:20.463Z,2.20
2023-05-19T20:03:48.156Z,2.03
2023-05-19T20:06:14.980Z,2.08
2023-05-19T20:08:41.682Z,2.13
2023-05-19T20:11:08.416Z,2.28
2023-05-19T20:13:35.018Z,1.67
2023-05-19T20:16:01.607Z,1.75
2023-05-19T20:18:29.879Z,2.15
2023-05-19T20:20:56.879Z,1.75
2023-05-19T20:23:23.488Z,1.52
2023-05-19T20:26:09.357Z,2.53
2023-05-19T20:28:36.620Z,1.50
2023-05-19T20:31:03.357Z,1.75
2023-05-19T20:33:30.015Z,1.90
2023-05-19T20:35:56.706Z,2.10
2023-05-19T20:38:23.488Z,1.88
2023-05-19T20:40:51.057Z,2.15
2023-05-19T20:43:17.738Z,1.75
2023-05-19T20:45:44.852Z,2.80
2023-05-19T20:48:11.895Z,2.20
2023-05-19T20:50:39.731Z,2.25
2023-05-19T20:53:07.538Z,3.30
2023-05-19T20:55:36.174Z,2.17
2023-05-19T20:58:03.113Z,3.25
2023-05-19T21:00:30.706Z,2.42
2023-05-19T21:02:57.913Z,2.35
2023-05-19T21:05:25.021Z,2.30
2023-05-19T21:07:51.654Z,2.05
2023-05-19T21:10:18.441Z,3.33
2023-05-19T21:12:45.437Z,2.08
2023-05-19T21:15:12.183Z,2.05
2023-05-19T21:17:38.757Z,2.72
2023-05-19T21:20:06.017Z,2.70
2023-05-19T21:22:32.736Z,2.95
2023-05-19T21:24:59.348Z,2.40
2023-05-19T21:27:25.962Z,2.03
2023-05-19T21:29:54.981Z,2.35
2023-05-19T21:32:22.079Z,2.45
2023-05-19T21:34:49.050Z,1.80
2023-05-19T21:37:17.342Z,2.50
2023-05-19T21:39:44.535Z,2.38
2023-05-19T21:42:11.381Z,2.38
2023-05-19T21:44:38.239Z,1.92
2023-05-19T21:47:04.886Z,2.58
2023-05-19T21:49:31.666Z,2.53
2023-05-19T21:51:58.696Z,2.20
2023-05-19T21:54:25.516Z,1.60
2023-05-19T21:56:52.181Z,2.28
2023-05-19T21:59:19.574Z,2.78
2023-05-19T22:01:46.836Z,1.80
2023-05-19T22:04:15.973Z,2.40
2023-05-19T22:06:43.323Z,1.75
2023-05-19T22:09:10.381Z,1.92
2023-05-19T22:11:37.009Z,1.77
2023-05-19T22:14:03.559Z,2.30
2023-05-19T22:16:31.218Z,1.88
2023-05-19T22:18:58.185Z,2.00
2023-05-19T22:21:24.906Z,1.70
2023-05-19T22:23:52.734Z,1.67
2023-05-19T22:26:19.369Z,1.20
2023-05-19T22:28:45.907Z,2.08
2023-05-19T22:31:12.494Z,2.00
2023-05-19T22:33:39.005Z,1.65
2023-05-19T22:36:05.811Z,1.50
2023-05-19T22:38:32.506Z,2.07
2023-05-19T22:40:59.083Z,1.85
2023-05-19T22:43:25.859Z,2.03
2023-05-19T22:45:52.566Z,2.03
2023-05-19T22:48:19.387Z,2.00
2023-05-19T22:50:46.258Z,2.23
2023-05-19T22:53:12.838Z,1.67
2023-05-19T22:55:39.584Z,2.40
2023-05-19T22:58:06.782Z,2.10
2023-05-19T23:00:33.381Z,1.90
2023-05-19T23:03:00.275Z,1.88
2023-05-19T23:05:26.918Z,2.65
2023-05-19T23:07:53.582Z,1.77
2023-05-19T23:10:20.234Z,2.15
2023-05-19T23:12:46.940Z,2.35
2023-05-19T23:15:13.532Z,1.70
2023-05-19T23:17:40.069Z,2.13
2023-05-19T23:20:07.335Z,2.08
2023-05-19T23:22:34.264Z,2.10
2023-05-19T23:25:05.701Z,2.05
2023-05-19T23:27:32.733Z,2.00
2023-05-19T23:29:59.399Z,2.00
2023-05-19T23:32:26.044Z,2.72
2023-05-19T23:34:52.628Z,2.72
2023-05-19T23:37:19.204Z,2.15
2023-05-19T23:39:45.800Z,2.08
2023-05-19T23:42:13.267Z,2.40
2023-05-19T23:44:39.940Z,2.30
2023-05-19T23:47:06.819Z,2.40
2023-05-19T23:49:33.633Z,2.63
2023-05-19T23:52:00.177Z,2.30
2023-05-19T23:54:26.748Z,2.50
2023-05-19T23:56:54.875Z,2.45
2023-05-19T23:59:21.451Z,2.40
